BOV336 SLAL-SLVR
Flight info
| Callsign | BOV336 |
|---|---|
| Flight time | 0h 34m |
| Altitude | 25000 |
| Route | NUVUD UW14 POTBO DCT EKOMA DCT PULEK |
| Aircraft | B737/M-SDE2E3FGHIRWXY/LB1 |
Departure
| Time | 2026-05-08 15:37 |
|---|---|
| Airport | Alcantarí International Airport (SLAL) |
Arrival
| Time | 2026-05-08 16:11 |
|---|---|
| Airport | Viru Viru International Airport (SLVR) |
| Time | Latitude | Longitude | Altitude | Speed | Heading |
|---|---|---|---|---|---|
| 2026-05-08 15:26 | -19.24596 | -65.15023 | 10186 ft | 0 kts | 92° |
| 2026-05-08 15:34 | -19.24596 | -65.15021 | 10186 ft | 4 kts | 92° |
| 2026-05-08 15:34 | -19.24636 | -65.14930 | 10186 ft | 24 kts | 145° |
| 2026-05-08 15:34 | -19.24776 | -65.14836 | 10185 ft | 19 kts | 84° |
| 2026-05-08 15:34 | -19.24795 | -65.14715 | 10186 ft | 11 kts | 155° |
| 2026-05-08 15:35 | -19.24949 | -65.14686 | 10183 ft | 35 kts | 171° |
| 2026-05-08 15:35 | -19.25238 | -65.14632 | 10182 ft | 42 kts | 167° |
| 2026-05-08 15:35 | -19.25447 | -65.14651 | 10182 ft | 20 kts | 154° |
| 2026-05-08 15:35 | -19.25454 | -65.14591 | 10181 ft | 7 kts | 41° |
| 2026-05-08 15:36 | -19.25363 | -65.14605 | 10182 ft | 37 kts | 347° |
| 2026-05-08 15:36 | -19.24890 | -65.14704 | 10184 ft | 101 kts | 348° |
| 2026-05-08 15:36 | -19.24007 | -65.14883 | 10188 ft | 155 kts | 349° |
| 2026-05-08 15:36 | -19.22826 | -65.15121 | 10454 ft | 182 kts | 347° |
| 2026-05-08 15:37 | -19.21560 | -65.15336 | 11186 ft | 190 kts | 0° |
| 2026-05-08 15:37 | -19.20313 | -65.14850 | 11829 ft | 197 kts | 39° |
| 2026-05-08 15:37 | -19.19496 | -65.13622 | 12186 ft | 221 kts | 72° |
| 2026-05-08 15:37 | -19.19085 | -65.11975 | 12374 ft | 244 kts | 75° |
| 2026-05-08 15:38 | -19.18619 | -65.10154 | 12630 ft | 266 kts | 73° |
| 2026-05-08 15:38 | -19.18106 | -65.08191 | 12853 ft | 286 kts | 72° |
| 2026-05-08 15:38 | -19.17559 | -65.06107 | 13117 ft | 300 kts | 74° |
| 2026-05-08 15:38 | -19.17001 | -65.03989 | 13669 ft | 303 kts | 74° |
| 2026-05-08 15:39 | -19.16286 | -65.01876 | 14167 ft | 310 kts | 62° |
| 2026-05-08 15:39 | -19.15066 | -64.99928 | 14294 ft | 331 kts | 49° |
| 2026-05-08 15:39 | -19.13470 | -64.98044 | 14465 ft | 354 kts | 47° |
| 2026-05-08 15:39 | -19.11779 | -64.96035 | 14644 ft | 376 kts | 47° |
| 2026-05-08 15:40 | -19.10032 | -64.93933 | 15120 ft | 383 kts | 47° |
| 2026-05-08 15:40 | -19.08271 | -64.91793 | 15627 ft | 389 kts | 48° |
| 2026-05-08 15:40 | -19.06484 | -64.89617 | 16214 ft | 393 kts | 47° |
| 2026-05-08 15:40 | -19.04688 | -64.87429 | 16838 ft | 395 kts | 48° |
| 2026-05-08 15:41 | -19.02876 | -64.85221 | 17380 ft | 400 kts | 48° |
| 2026-05-08 15:41 | -19.01052 | -64.83000 | 18001 ft | 402 kts | 47° |
| 2026-05-08 15:41 | -18.99208 | -64.80754 | 18477 ft | 407 kts | 48° |
| 2026-05-08 15:41 | -18.97364 | -64.78511 | 18981 ft | 410 kts | 48° |
| 2026-05-08 15:42 | -18.95488 | -64.76229 | 19513 ft | 412 kts | 48° |
| 2026-05-08 15:42 | -18.93597 | -64.73931 | 20001 ft | 416 kts | 48° |
| 2026-05-08 15:42 | -18.91698 | -64.71622 | 20517 ft | 418 kts | 48° |
| 2026-05-08 15:42 | -18.89773 | -64.69284 | 21033 ft | 421 kts | 48° |
| 2026-05-08 15:43 | -18.87846 | -64.66943 | 21519 ft | 424 kts | 48° |
| 2026-05-08 15:43 | -18.85902 | -64.64582 | 21986 ft | 428 kts | 48° |
| 2026-05-08 15:43 | -18.83944 | -64.62205 | 22457 ft | 431 kts | 48° |
| 2026-05-08 15:43 | -18.81971 | -64.59811 | 22957 ft | 433 kts | 48° |
| 2026-05-08 15:44 | -18.80012 | -64.57435 | 23562 ft | 432 kts | 48° |
| 2026-05-08 15:44 | -18.78028 | -64.55071 | 24173 ft | 429 kts | 45° |
| 2026-05-08 15:44 | -18.75941 | -64.52813 | 24545 ft | 430 kts | 43° |
| 2026-05-08 15:44 | -18.73822 | -64.50632 | 24653 ft | 427 kts | 42° |
| 2026-05-08 15:45 | -18.71639 | -64.48431 | 24685 ft | 438 kts | 41° |
| 2026-05-08 15:45 | -18.69408 | -64.46189 | 24691 ft | 448 kts | 41° |
| 2026-05-08 15:45 | -18.67139 | -64.43899 | 24693 ft | 457 kts | 42° |
| 2026-05-08 15:45 | -18.64828 | -64.41552 | 24697 ft | 465 kts | 42° |
| 2026-05-08 15:46 | -18.62484 | -64.39160 | 24693 ft | 472 kts | 42° |
| 2026-05-08 15:46 | -18.60112 | -64.36731 | 24693 ft | 477 kts | 42° |
| 2026-05-08 15:46 | -18.57719 | -64.34276 | 24695 ft | 482 kts | 42° |
| 2026-05-08 15:46 | -18.55306 | -64.31801 | 24683 ft | 486 kts | 42° |
| 2026-05-08 15:47 | -18.52901 | -64.29334 | 24686 ft | 489 kts | 42° |
| 2026-05-08 15:47 | -18.50454 | -64.26826 | 24691 ft | 492 kts | 42° |
| 2026-05-08 15:47 | -18.48013 | -64.24325 | 24681 ft | 481 kts | 42° |
| 2026-05-08 15:47 | -18.45661 | -64.21912 | 24675 ft | 461 kts | 42° |
| 2026-05-08 15:48 | -18.41262 | -64.17403 | 24675 ft | 422 kts | 42° |
| 2026-05-08 15:48 | -18.39218 | -64.15312 | 24669 ft | 407 kts | 42° |
| 2026-05-08 15:48 | -18.37217 | -64.13267 | 24661 ft | 397 kts | 42° |
| 2026-05-08 15:49 | -18.35212 | -64.11223 | 24685 ft | 406 kts | 41° |
| 2026-05-08 15:49 | -18.33147 | -64.09120 | 24700 ft | 417 kts | 42° |
| 2026-05-08 15:49 | -18.31052 | -64.06986 | 24672 ft | 418 kts | 42° |
| 2026-05-08 15:49 | -18.28976 | -64.04868 | 24688 ft | 414 kts | 42° |
| 2026-05-08 15:50 | -18.26938 | -64.02756 | 24511 ft | 409 kts | 44° |
| 2026-05-08 15:50 | -18.25015 | -64.00576 | 24167 ft | 406 kts | 46° |
| 2026-05-08 15:50 | -18.23138 | -63.98334 | 23655 ft | 407 kts | 47° |
| 2026-05-08 15:50 | -18.21306 | -63.96112 | 23134 ft | 407 kts | 48° |
| 2026-05-08 15:51 | -18.19459 | -63.93873 | 22681 ft | 403 kts | 47° |
| 2026-05-08 15:51 | -18.17617 | -63.91653 | 22262 ft | 400 kts | 47° |
| 2026-05-08 15:51 | -18.15796 | -63.89473 | 21843 ft | 396 kts | 47° |
| 2026-05-08 15:51 | -18.13978 | -63.87308 | 21412 ft | 393 kts | 47° |
| 2026-05-08 15:52 | -18.12167 | -63.85159 | 20973 ft | 391 kts | 47° |
| 2026-05-08 15:52 | -18.10366 | -63.83027 | 20552 ft | 388 kts | 47° |
| 2026-05-08 15:52 | -18.08599 | -63.80936 | 20155 ft | 385 kts | 47° |
| 2026-05-08 15:52 | -18.06804 | -63.78814 | 19734 ft | 382 kts | 47° |
| 2026-05-08 15:53 | -18.05060 | -63.76753 | 19331 ft | 380 kts | 47° |
| 2026-05-08 15:53 | -18.03308 | -63.74682 | 18947 ft | 377 kts | 47° |
| 2026-05-08 15:53 | -18.01577 | -63.72639 | 18559 ft | 374 kts | 47° |
| 2026-05-08 15:53 | -17.99848 | -63.70598 | 18141 ft | 372 kts | 47° |
| 2026-05-08 15:54 | -17.98134 | -63.68574 | 17690 ft | 369 kts | 47° |
| 2026-05-08 15:54 | -17.96437 | -63.66570 | 17257 ft | 366 kts | 46° |
| 2026-05-08 15:54 | -17.94747 | -63.64575 | 16834 ft | 363 kts | 46° |
| 2026-05-08 15:54 | -17.93075 | -63.62603 | 16433 ft | 360 kts | 46° |
| 2026-05-08 15:55 | -17.91409 | -63.60639 | 16010 ft | 357 kts | 46° |
| 2026-05-08 15:55 | -17.88168 | -63.56818 | 15468 ft | 343 kts | 45° |
| 2026-05-08 15:55 | -17.86621 | -63.54991 | 15374 ft | 326 kts | 45° |
| 2026-05-08 15:56 | -17.85139 | -63.53242 | 15047 ft | 317 kts | 45° |
| 2026-05-08 15:56 | -17.83753 | -63.51610 | 14613 ft | 317 kts | 44° |
| 2026-05-08 15:56 | -17.82287 | -63.49887 | 14301 ft | 315 kts | 44° |
| 2026-05-08 15:56 | -17.80837 | -63.48183 | 14030 ft | 311 kts | 44° |
| 2026-05-08 15:57 | -17.79401 | -63.46494 | 13722 ft | 309 kts | 44° |
| 2026-05-08 15:57 | -17.77975 | -63.44817 | 13358 ft | 307 kts | 44° |
| 2026-05-08 15:57 | -17.76578 | -63.43174 | 13053 ft | 304 kts | 44° |
| 2026-05-08 15:57 | -17.75181 | -63.41533 | 12721 ft | 302 kts | 44° |
| 2026-05-08 15:58 | -17.73795 | -63.39903 | 12486 ft | 293 kts | 43° |
| 2026-05-08 15:58 | -17.72455 | -63.38326 | 12290 ft | 287 kts | 43° |
| 2026-05-08 15:58 | -17.71042 | -63.36891 | 11998 ft | 279 kts | 30° |
| 2026-05-08 15:58 | -17.69399 | -63.35838 | 11716 ft | 274 kts | 24° |
| 2026-05-08 15:59 | -17.67729 | -63.34892 | 11425 ft | 272 kts | 22° |
| 2026-05-08 15:59 | -17.66088 | -63.33969 | 11135 ft | 271 kts | 23° |
| 2026-05-08 15:59 | -17.64435 | -63.33024 | 10819 ft | 270 kts | 23° |
| 2026-05-08 15:59 | -17.62789 | -63.32066 | 10526 ft | 270 kts | 23° |
| 2026-05-08 16:00 | -17.61174 | -63.31113 | 10305 ft | 265 kts | 24° |
| 2026-05-08 16:00 | -17.59568 | -63.30160 | 10013 ft | 265 kts | 24° |
| 2026-05-08 16:00 | -17.57967 | -63.29205 | 9730 ft | 263 kts | 24° |
| 2026-05-08 16:00 | -17.56375 | -63.28254 | 9446 ft | 262 kts | 24° |
| 2026-05-08 16:01 | -17.54817 | -63.27320 | 9170 ft | 261 kts | 24° |
| 2026-05-08 16:01 | -17.53233 | -63.26371 | 8875 ft | 256 kts | 24° |
| 2026-05-08 16:01 | -17.51712 | -63.25458 | 8470 ft | 254 kts | 24° |
| 2026-05-08 16:01 | -17.50203 | -63.24552 | 8202 ft | 246 kts | 25° |
| 2026-05-08 16:02 | -17.48747 | -63.23644 | 7893 ft | 242 kts | 33° |
| 2026-05-08 16:02 | -17.47657 | -63.22302 | 7582 ft | 246 kts | 57° |
| 2026-05-08 16:02 | -17.47159 | -63.20571 | 7221 ft | 252 kts | 82° |
| 2026-05-08 16:02 | -17.47382 | -63.18737 | 6839 ft | 258 kts | 108° |
| 2026-05-08 16:03 | -17.48349 | -63.17165 | 6506 ft | 259 kts | 136° |
| 2026-05-08 16:03 | -17.49884 | -63.16213 | 6110 ft | 256 kts | 166° |
| 2026-05-08 16:03 | -17.51599 | -63.16071 | 5820 ft | 246 kts | 190° |
| 2026-05-08 16:03 | -17.53206 | -63.16580 | 5474 ft | 240 kts | 208° |
| 2026-05-08 16:04 | -17.54664 | -63.17397 | 5181 ft | 234 kts | 210° |
| 2026-05-08 16:04 | -17.56057 | -63.18231 | 4887 ft | 228 kts | 208° |
| 2026-05-08 16:04 | -17.57423 | -63.19045 | 4604 ft | 223 kts | 207° |
| 2026-05-08 16:04 | -17.58762 | -63.19834 | 4286 ft | 219 kts | 206° |
| 2026-05-08 16:05 | -17.59907 | -63.20866 | 4037 ft | 218 kts | 230° |
| 2026-05-08 16:05 | -17.60420 | -63.21773 | 3871 ft | 220 kts | 242° |
| 2026-05-08 16:05 | -17.60789 | -63.23883 | 3558 ft | 226 kts | 271° |
| 2026-05-08 16:05 | -17.60194 | -63.25390 | 3331 ft | 226 kts | 306° |
| 2026-05-08 16:06 | -17.58932 | -63.26317 | 3113 ft | 220 kts | 342° |
| 2026-05-08 16:06 | -17.57457 | -63.26429 | 2983 ft | 209 kts | 17° |
| 2026-05-08 16:06 | -17.56188 | -63.25792 | 2953 ft | 200 kts | 48° |
| 2026-05-08 16:06 | -17.55591 | -63.25064 | 2917 ft | 197 kts | 68° |
| 2026-05-08 16:07 | -17.55162 | -63.23757 | 2922 ft | 182 kts | 91° |
| 2026-05-08 16:07 | -17.55240 | -63.22547 | 2888 ft | 154 kts | 112° |
| 2026-05-08 16:07 | -17.55520 | -63.21477 | 2874 ft | 150 kts | 111° |
| 2026-05-08 16:07 | -17.55795 | -63.20418 | 2917 ft | 149 kts | 112° |
| 2026-05-08 16:08 | -17.56235 | -63.19143 | 2856 ft | 132 kts | 137° |
| 2026-05-08 16:08 | -17.56751 | -63.18830 | 2760 ft | 125 kts | 160° |
| 2026-05-08 16:08 | -17.57477 | -63.18353 | 2573 ft | 125 kts | 136° |
| 2026-05-08 16:08 | -17.58169 | -63.17786 | 2410 ft | 128 kts | 152° |
| 2026-05-08 16:09 | -17.58926 | -63.17286 | 2230 ft | 129 kts | 147° |
| 2026-05-08 16:09 | -17.59688 | -63.16761 | 2060 ft | 132 kts | 147° |
| 2026-05-08 16:09 | -17.60457 | -63.16240 | 1855 ft | 129 kts | 147° |
| 2026-05-08 16:09 | -17.61250 | -63.15749 | 1658 ft | 138 kts | 147° |
| 2026-05-08 16:10 | -17.62071 | -63.15192 | 1515 ft | 140 kts | 145° |
| 2026-05-08 16:10 | -17.62852 | -63.14644 | 1330 ft | 129 kts | 144° |
| 2026-05-08 16:10 | -17.63563 | -63.14153 | 1229 ft | 109 kts | 147° |
| 2026-05-08 16:10 | -17.64103 | -63.13787 | 1227 ft | 75 kts | 147° |
| 2026-05-08 16:11 | -17.64445 | -63.13556 | 1231 ft | 42 kts | 147° |
| 2026-05-08 16:11 | -17.64574 | -63.13468 | 1231 ft | 16 kts | 147° |
| 2026-05-08 16:11 | -17.64585 | -63.13461 | 1231 ft | 12 kts | 148° |
| 2026-05-08 16:11 | -17.64685 | -63.13398 | 1231 ft | 22 kts | 149° |
| 2026-05-08 16:12 | -17.64837 | -63.13298 | 1231 ft | 30 kts | 148° |
| 2026-05-08 16:12 | -17.65046 | -63.13163 | 1230 ft | 23 kts | 170° |
| 2026-05-08 16:12 | -17.65155 | -63.13262 | 1230 ft | 22 kts | 247° |
| 2026-05-08 16:12 | -17.65138 | -63.13327 | 1230 ft | 6 kts | 327° |
| 2026-05-08 16:13 | -17.65058 | -63.13382 | 1230 ft | 22 kts | 327° |
| 2026-05-08 16:13 | -17.64929 | -63.13469 | 1230 ft | 22 kts | 327° |
| 2026-05-08 16:13 | -17.64807 | -63.13555 | 1230 ft | 21 kts | 315° |
| 2026-05-08 16:13 | -17.64802 | -63.13625 | 1230 ft | 0 kts | 250° |
| 2026-05-08 16:14 | -17.64811 | -63.13637 | 1230 ft | 6 kts | 233° |
| 2026-05-08 16:14 | -17.64822 | -63.13665 | 1230 ft | 0 kts | 261° |
| 2026-05-08 16:15 | -17.64822 | -63.13666 | 1230 ft | 0 kts | 252° |
| 2026-05-08 16:15 | -17.64832 | -63.13677 | 1230 ft | 7 kts | 231° |
| 2026-05-08 16:15 | -17.64873 | -63.13785 | 1230 ft | 17 kts | 298° |
| 2026-05-08 16:15 | -17.64781 | -63.13858 | 1230 ft | 13 kts | 327° |
| 2026-05-08 16:16 | -17.64708 | -63.13907 | 1230 ft | 12 kts | 327° |
| 2026-05-08 16:16 | -17.64679 | -63.13933 | 1230 ft | 4 kts | 289° |
| 2026-05-08 16:16 | -17.64692 | -63.13969 | 1230 ft | 9 kts | 239° |
| 2026-05-08 16:16 | -17.64717 | -63.14009 | 1230 ft | 0 kts | 237° |